Dickert, Alabama
Current Conditions -  °F | °C
As of 1:35 AM on Sunday 23 Nov 2014 (Local Time) from KLGC Reporting Station
Moderate Rain Moderate Rain  
Wind Chill: 58°   Ceiling: 800
Heat Index: 58°   Visibility: 7mi
Dew Point: 56°   Wind: 5mph
Humidity: 96%   Direction: 90°E
Pressure: 30.08"   Gusts: NA
Location:  33.1661°N, 85.5111°W
Report Text: KLGC 230735Z AUTO 09004KT 7SM RA OVC008 14/14 A3008 RMK AO2 T01420136
Loading
Personal Weather Stations






























Interactive Weather Map New forecast layout! Learn more

10-Day Weather Forecast

Advertisements
Track Severe Weather on mobile